Time,TemperatureF,DewpointF,PressureIn,WindDirection,WindDirectionDegrees,WindSpeedMPH,WindSpeedGustMPH,Humidity,HourlyPrecipIn,Conditions,Clouds,dailyrainin,SoftwareType,DateUTC
2013-05-15 00:08:00,46.8,23.7,-100.00,North,-999,0.0,0.0,40,0.00,,,-99.99,FreeWX-Wi 1.01,2013-05-15 07:08:00,
2013-05-15 00:13:00,46.8,24.3,-100.00,North,-999,0.0,0.0,41,0.00,,,-99.99,FreeWX-Wi 1.01,2013-05-15 07:13:00,
2013-05-15 00:24:00,46.4,24.1,-100.00,North,-999,0.0,0.0,41,0.00,,,-99.99,FreeWX-Wi 1.01,2013-05-15 07:24:00,
2013-05-15 00:29:00,46.4,24.1,-100.00,North,-999,0.0,0.0,41,0.00,,,-99.99,FreeWX-Wi 1.01,2013-05-15 07:29:00,
2013-05-15 00:34:00,46.2,24.4,-100.00,North,-999,0.0,0.0,42,0.00,,,-99.99,FreeWX-Wi 1.01,2013-05-15 07:34:00,
2013-05-15 00:39:00,46.0,24.3,-100.00,North,-999,0.0,0.0,42,0.00,,,-99.99,FreeWX-Wi 1.01,2013-05-15 07:39:00,
2013-05-15 00:44:00,46.0,24.3,-100.00,North,-999,0.0,0.0,42,0.00,,,-99.99,FreeWX-Wi 1.01,2013-05-15 07:44:00,
2013-05-15 00:49:00,45.9,24.6,-100.00,North,-999,0.0,0.0,43,0.00,,,-99.99,FreeWX-Wi 1.01,2013-05-15 07:49:00,
2013-05-15 00:54:00,45.7,24.4,-100.00,North,-999,0.0,0.0,43,0.00,,,-99.99,FreeWX-Wi 1.01,2013-05-15 07:54:00,
2013-05-15 00:59:00,45.3,24.6,-100.00,North,-999,0.0,0.0,44,0.00,,,-99.99,FreeWX-Wi 1.01,2013-05-15 07:59:00,
2013-05-15 01:04:00,45.3,24.1,-100.00,North,-999,0.0,0.0,43,0.00,,,-99.99,FreeWX-Wi 1.01,2013-05-15 08:04:00,
2013-05-15 01:09:00,45.3,24.1,-100.00,North,-999,0.0,0.0,43,0.00,,,-99.99,FreeWX-Wi 1.01,2013-05-15 08:09:00,
2013-05-15 01:14:00,45.1,24.1,-100.00,North,-999,0.0,0.0,43,0.00,,,-99.99,FreeWX-Wi 1.01,2013-05-15 08:14:00,
2013-05-15 01:19:00,44.8,23.7,-100.00,North,-999,0.0,0.0,43,0.00,,,-99.99,FreeWX-Wi 1.01,2013-05-15 08:19:00,
2013-05-15 01:24:00,44.8,24.3,-100.00,North,-999,0.0,0.0,44,0.00,,,-99.99,FreeWX-Wi 1.01,2013-05-15 08:24:00,
2013-05-15 01:34:00,44.4,24.4,-100.00,North,-999,0.0,0.0,45,0.00,,,-99.99,FreeWX-Wi 1.01,2013-05-15 08:34:00,
2013-05-15 02:15:00,43.7,24.3,-100.00,North,-999,0.0,0.0,46,0.00,,,-99.99,FreeWX-Wi 1.01,2013-05-15 09:15:00,
2013-05-15 02:30:00,43.5,24.1,-100.00,North,-999,0.0,0.0,46,0.00,,,-99.99,FreeWX-Wi 1.01,2013-05-15 09:30:00,
2013-05-15 02:45:00,43.2,23.7,-100.00,North,-999,0.0,0.0,46,0.00,,,-99.99,FreeWX-Wi 1.01,2013-05-15 09:45:00,
2013-05-15 03:06:00,42.8,23.9,-100.00,North,-999,0.0,0.0,47,0.00,,,-99.99,FreeWX-Wi 1.01,2013-05-15 10:06:00,
2013-05-15 03:11:00,42.8,23.9,-100.00,North,-999,0.0,0.0,47,0.00,,,-99.99,FreeWX-Wi 1.01,2013-05-15 10:11:00,
2013-05-15 03:16:00,42.8,24.4,-100.00,North,-999,0.0,0.0,48,0.00,,,-99.99,FreeWX-Wi 1.01,2013-05-15 10:16:00,
2013-05-15 03:21:00,42.8,24.4,-100.00,North,-999,0.0,0.0,48,0.00,,,-99.99,FreeWX-Wi 1.01,2013-05-15 10:21:00,
2013-05-15 03:31:00,42.8,24.4,-100.00,North,-999,0.0,0.0,48,0.00,,,-99.99,FreeWX-Wi 1.01,2013-05-15 10:31:00,
2013-05-15 07:04:00,44.2,31.6,-100.00,North,-999,0.0,0.0,61,0.00,,,-99.99,FreeWX-Wi 1.01,2013-05-15 14:04:00,
2013-05-15 07:09:00,45.5,33.6,-100.00,North,-999,0.0,0.0,63,0.00,,,-99.99,FreeWX-Wi 1.01,2013-05-15 14:09:00,
2013-05-15 07:14:00,46.6,34.3,-100.00,North,-999,0.0,0.0,62,0.00,,,-99.99,FreeWX-Wi 1.01,2013-05-15 14:14:00,
2013-05-15 07:20:00,47.1,34.3,-100.00,North,-999,0.0,0.0,61,0.00,,,-99.99,FreeWX-Wi 1.01,2013-05-15 14:20:00,
2013-05-15 07:25:00,48.4,34.3,-100.00,North,-999,0.0,0.0,58,0.00,,,-99.99,FreeWX-Wi 1.01,2013-05-15 14:25:00,
2013-05-15 07:30:00,49.1,30.2,-100.00,North,-999,0.0,0.0,48,0.00,,,-99.99,FreeWX-Wi 1.01,2013-05-15 14:30:00,
2013-05-15 07:35:00,49.8,28.2,-100.00,North,-999,0.0,0.0,43,0.00,,,-99.99,FreeWX-Wi 1.01,2013-05-15 14:35:00,
2013-05-15 07:40:00,50.2,26.8,-100.00,North,-999,0.0,0.0,40,0.00,,,-99.99,FreeWX-Wi 1.01,2013-05-15 14:40:00,
2013-05-15 07:46:00,50.7,26.6,-100.00,North,-999,0.0,0.0,39,0.00,,,-99.99,FreeWX-Wi 1.01,2013-05-15 14:46:00,
2013-05-15 07:51:00,50.9,25.5,-100.00,North,-999,0.0,0.0,37,0.00,,,-99.99,FreeWX-Wi 1.01,2013-05-15 14:51:00,
2013-05-15 07:56:00,51.6,26.2,-100.00,North,-999,0.0,0.0,37,0.00,,,-99.99,FreeWX-Wi 1.01,2013-05-15 14:56:00,
2013-05-15 08:01:00,52.3,26.8,-100.00,North,-999,0.0,0.0,37,0.00,,,-99.99,FreeWX-Wi 1.01,2013-05-15 15:01:00,
2013-05-15 08:06:00,52.7,27.1,-100.00,North,-999,0.0,0.0,37,0.00,,,-99.99,FreeWX-Wi 1.01,2013-05-15 15:06:00,
2013-05-15 08:11:00,53.2,27.7,-100.00,North,-999,0.0,0.0,37,0.00,,,-99.99,FreeWX-Wi 1.01,2013-05-15 15:11:00,
2013-05-15 08:22:00,54.7,28.2,-100.00,North,-999,0.0,0.0,36,0.00,,,-99.99,FreeWX-Wi 1.01,2013-05-15 15:22:00,
2013-05-15 08:27:00,55.4,28.9,-100.00,North,-999,0.0,0.0,36,0.00,,,-99.99,FreeWX-Wi 1.01,2013-05-15 15:27:00,
2013-05-15 08:32:00,55.9,29.3,-100.00,North,-999,0.0,0.0,36,0.00,,,-99.99,FreeWX-Wi 1.01,2013-05-15 15:32:00,
2013-05-15 08:49:00,57.4,30.0,-100.00,North,-999,0.0,0.0,35,0.00,,,-99.99,FreeWX-Wi 1.01,2013-05-15 15:49:00,
2013-05-15 08:59:00,58.6,31.1,-100.00,North,-999,0.0,0.0,35,0.00,,,-99.99,FreeWX-Wi 1.01,2013-05-15 15:59:00,
2013-05-15 09:04:00,59.2,31.5,-100.00,North,-999,0.0,0.0,35,0.00,,,-99.99,FreeWX-Wi 1.01,2013-05-15 16:04:00,
2013-05-15 09:09:00,59.2,31.5,-100.00,North,-999,0.0,3.1,35,0.00,,,-99.99,FreeWX-Wi 1.01,2013-05-15 16:09:00,
2013-05-15 09:14:00,59.2,31.5,-100.00,North,-999,0.0,3.1,35,0.00,,,-99.99,FreeWX-Wi 1.01,2013-05-15 16:14:00,
2013-05-15 09:19:00,59.2,31.5,-100.00,North,-999,0.0,0.0,35,0.00,,,-99.99,FreeWX-Wi 1.01,2013-05-15 16:19:00,
2013-05-15 09:24:00,59.0,31.5,-100.00,North,-999,0.0,0.0,35,0.00,,,-99.99,FreeWX-Wi 1.01,2013-05-15 16:24:00,
2013-05-15 09:29:00,59.0,31.5,-100.00,North,-999,0.0,0.0,35,0.00,,,-99.99,FreeWX-Wi 1.01,2013-05-15 16:29:00,
2013-05-15 09:34:00,58.8,31.3,-100.00,North,-999,0.0,0.0,35,0.00,,,-99.99,FreeWX-Wi 1.01,2013-05-15 16:34:00,
2013-05-15 09:39:00,59.0,31.5,-100.00,North,-999,0.0,3.1,35,0.00,,,-99.99,FreeWX-Wi 1.01,2013-05-15 16:39:00,
2013-05-15 09:44:00,59.7,32.0,-100.00,North,-999,0.0,0.0,35,0.00,,,-99.99,FreeWX-Wi 1.01,2013-05-15 16:44:00,
2013-05-15 09:50:00,60.8,32.2,-100.00,North,-999,0.0,0.0,34,0.00,,,-99.99,FreeWX-Wi 1.01,2013-05-15 16:50:00,
2013-05-15 09:55:00,62.2,33.4,-100.00,North,-999,0.0,2.2,34,0.00,,,-99.99,FreeWX-Wi 1.01,2013-05-15 16:55:00,
2013-05-15 10:00:00,63.9,34.9,-100.00,North,-999,0.0,0.0,34,0.00,,,-99.99,FreeWX-Wi 1.01,2013-05-15 17:00:00,
2013-05-15 10:05:00,65.3,35.4,-100.00,North,-999,0.0,0.0,33,0.00,,,-99.99,FreeWX-Wi 1.01,2013-05-15 17:05:00,
2013-05-15 10:15:00,64.9,35.1,-100.00,North,-999,0.0,3.6,33,0.00,,,-99.99,FreeWX-Wi 1.01,2013-05-15 17:15:00,
2013-05-15 10:20:00,65.3,35.4,-100.00,North,-999,0.0,2.7,33,0.00,,,-99.99,FreeWX-Wi 1.01,2013-05-15 17:20:00,
2013-05-15 10:25:00,66.6,36.5,-100.00,North,-999,0.0,0.0,33,0.00,,,-99.99,FreeWX-Wi 1.01,2013-05-15 17:25:00,
2013-05-15 10:30:00,66.7,36.7,-100.00,North,-999,0.0,2.7,33,0.00,,,-99.99,FreeWX-Wi 1.01,2013-05-15 17:30:00,
2013-05-15 10:35:00,67.1,37.0,-100.00,NE,50,1.0,4.0,33,0.00,,,-99.99,FreeWX-Wi 1.01,2013-05-15 17:35:00,
2013-05-15 10:40:00,71.1,39.7,-100.00,North,-999,0.0,3.6,32,0.00,,,-99.99,FreeWX-Wi 1.01,2013-05-15 17:40:00,
2013-05-15 10:46:00,73.4,41.0,-100.00,North,-999,0.0,4.0,31,0.00,,,-99.99,FreeWX-Wi 1.01,2013-05-15 17:46:00,
2013-05-15 10:51:00,72.7,41.2,-100.00,NE,46,1.0,3.6,32,0.00,,,-99.99,FreeWX-Wi 1.01,2013-05-15 17:51:00,
2013-05-15 10:56:00,73.8,41.2,-100.00,ENE,59,1.0,4.0,31,0.00,,,-99.99,FreeWX-Wi 1.01,2013-05-15 17:56:00,
2013-05-15 11:01:00,74.7,42.1,-100.00,ENE,62,1.0,4.0,31,0.00,,,-99.99,FreeWX-Wi 1.01,2013-05-15 18:01:00,
2013-05-15 11:06:00,76.3,43.3,-100.00,NE,51,1.0,3.1,31,0.00,,,-99.99,FreeWX-Wi 1.01,2013-05-15 18:06:00,
2013-05-15 11:11:00,77.9,44.8,-100.00,ENE,69,1.0,3.1,31,0.00,,,-99.99,FreeWX-Wi 1.01,2013-05-15 18:11:00,
2013-05-15 11:16:00,78.1,45.0,-100.00,North,-999,0.0,4.0,31,0.00,,,-99.99,FreeWX-Wi 1.01,2013-05-15 18:16:00,
2013-05-15 11:21:00,78.3,45.1,-100.00,North,-999,0.0,3.6,31,0.00,,,-99.99,FreeWX-Wi 1.01,2013-05-15 18:21:00,
2013-05-15 11:26:00,78.6,45.5,-100.00,North,-999,0.0,4.0,31,0.00,,,-99.99,FreeWX-Wi 1.01,2013-05-15 18:26:00,
2013-05-15 11:31:00,78.6,45.5,-100.00,North,-999,0.0,2.7,31,0.00,,,-99.99,FreeWX-Wi 1.01,2013-05-15 18:31:00,
2013-05-15 11:36:00,78.8,44.8,-100.00,North,-999,0.0,4.0,30,0.00,,,-99.99,FreeWX-Wi 1.01,2013-05-15 18:36:00,
2013-05-15 11:41:00,76.3,43.3,-100.00,North,-999,0.0,3.6,31,0.00,,,-99.99,FreeWX-Wi 1.01,2013-05-15 18:41:00,
2013-05-15 11:46:00,76.8,43.9,-100.00,NE,45,1.0,4.9,31,0.00,,,-99.99,FreeWX-Wi 1.01,2013-05-15 18:46:00,
2013-05-15 11:51:00,76.3,43.3,-100.00,NE,34,1.0,4.0,31,0.00,,,-99.99,FreeWX-Wi 1.01,2013-05-15 18:51:00,
2013-05-15 11:56:00,77.0,44.1,-100.00,North,350,1.0,6.3,31,0.00,,,-99.99,FreeWX-Wi 1.01,2013-05-15 18:56:00,
2013-05-15 12:01:00,75.4,42.6,-100.00,South,174,1.0,4.9,31,0.00,,,-99.99,FreeWX-Wi 1.01,2013-05-15 19:01:00,
2013-05-15 12:06:00,74.1,41.5,-100.00,West,262,1.0,5.4,31,0.00,,,-99.99,FreeWX-Wi 1.01,2013-05-15 19:06:00,
2013-05-15 12:11:00,75.7,43.0,-100.00,WNW,285,1.0,4.0,31,0.00,,,-99.99,FreeWX-Wi 1.01,2013-05-15 19:11:00,
2013-05-15 12:16:00,76.6,43.7,-100.00,WNW,303,1.0,4.0,31,0.00,,,-99.99,FreeWX-Wi 1.01,2013-05-15 19:16:00,
2013-05-15 12:21:00,75.7,43.0,-100.00,WNW,294,1.0,4.0,31,0.00,,,-99.99,FreeWX-Wi 1.01,2013-05-15 19:21:00,
2013-05-15 12:26:00,78.1,45.0,-100.00,West,275,1.0,3.6,31,0.00,,,-99.99,FreeWX-Wi 1.01,2013-05-15 19:26:00,
2013-05-15 12:31:00,80.1,45.9,-100.00,West,271,1.0,4.9,30,0.00,,,-99.99,FreeWX-Wi 1.01,2013-05-15 19:31:00,
2013-05-15 12:36:00,81.7,47.1,-100.00,West,264,1.0,3.6,30,0.00,,,-99.99,FreeWX-Wi 1.01,2013-05-15 19:36:00,
2013-05-15 12:42:00,82.6,47.1,-100.00,West,277,1.0,5.8,29,0.00,,,-99.99,FreeWX-Wi 1.01,2013-05-15 19:42:00,
2013-05-15 12:47:00,82.9,47.3,-100.00,WSW,238,1.0,5.4,29,0.00,,,-99.99,FreeWX-Wi 1.01,2013-05-15 19:47:00,
2013-05-15 12:52:00,80.8,46.4,-100.00,SW,229,1.0,5.4,30,0.00,,,-99.99,FreeWX-Wi 1.01,2013-05-15 19:52:00,
2013-05-15 12:57:00,80.8,46.4,-100.00,South,186,1.0,4.0,30,0.00,,,-99.99,FreeWX-Wi 1.01,2013-05-15 19:57:00,
2013-05-15 13:02:00,80.6,46.2,-100.00,SSE,157,1.0,6.3,30,0.00,,,-99.99,FreeWX-Wi 1.01,2013-05-15 20:02:00,
2013-05-15 13:07:00,79.3,45.1,-100.00,SE,144,1.0,5.4,30,0.00,,,-99.99,FreeWX-Wi 1.01,2013-05-15 20:07:00,
2013-05-15 13:23:00,75.0,42.3,-100.00,South,177,1.0,5.4,31,0.00,,,-99.99,FreeWX-Wi 1.01,2013-05-15 20:23:00,
2013-05-15 13:28:00,71.2,39.9,-100.00,SW,216,2.0,8.1,32,0.00,,,-99.99,FreeWX-Wi 1.01,2013-05-15 20:28:00,
2013-05-15 13:33:00,72.0,40.5,-100.00,WSW,256,2.0,4.0,32,0.00,,,-99.99,FreeWX-Wi 1.01,2013-05-15 20:33:00,
2013-05-15 13:38:00,73.2,41.5,-100.00,West,263,2.0,3.6,32,0.00,,,-99.99,FreeWX-Wi 1.01,2013-05-15 20:38:00,
2013-05-15 13:43:00,71.8,40.3,-100.00,West,268,2.0,5.8,32,0.00,,,-99.99,FreeWX-Wi 1.01,2013-05-15 20:43:00,
2013-05-15 13:48:00,71.1,39.7,-100.00,West,271,2.0,5.8,32,0.00,,,-99.99,FreeWX-Wi 1.01,2013-05-15 20:48:00,
2013-05-15 13:53:00,69.8,38.7,-100.00,West,266,2.0,4.9,32,0.00,,,-99.99,FreeWX-Wi 1.01,2013-05-15 20:53:00,
2013-05-15 13:58:00,70.7,39.4,-100.00,West,272,2.0,3.1,32,0.00,,,-99.99,FreeWX-Wi 1.01,2013-05-15 20:58:00,
2013-05-15 14:03:00,70.3,39.0,-100.00,West,274,2.0,5.8,32,0.00,,,-99.99,FreeWX-Wi 1.01,2013-05-15 21:03:00,
2013-05-15 14:08:00,69.4,39.0,-100.00,West,274,2.0,5.8,33,0.00,,,-99.99,FreeWX-Wi 1.01,2013-05-15 21:08:00,
2013-05-15 14:13:00,67.6,37.6,-100.00,West,275,2.0,7.6,33,0.00,,,-99.99,FreeWX-Wi 1.01,2013-05-15 21:13:00,
2013-05-15 14:18:00,68.5,38.3,-100.00,West,277,2.0,4.9,33,0.00,,,-99.99,FreeWX-Wi 1.01,2013-05-15 21:18:00,
2013-05-15 14:23:00,68.5,38.3,-100.00,West,278,2.0,5.8,33,0.00,,,-99.99,FreeWX-Wi 1.01,2013-05-15 21:23:00,
2013-05-15 14:28:00,67.3,37.2,-100.00,West,277,2.0,7.2,33,0.00,,,-99.99,FreeWX-Wi 1.01,2013-05-15 21:28:00,
2013-05-15 14:33:00,68.0,37.8,-100.00,West,276,2.0,4.9,33,0.00,,,-99.99,FreeWX-Wi 1.01,2013-05-15 21:33:00,
2013-05-15 14:38:00,68.5,38.3,-100.00,West,272,2.0,5.8,33,0.00,,,-99.99,FreeWX-Wi 1.01,2013-05-15 21:38:00,
2013-05-15 14:43:00,68.5,38.3,-100.00,West,266,2.0,4.0,33,0.00,,,-99.99,FreeWX-Wi 1.01,2013-05-15 21:43:00,
2013-05-15 14:48:00,67.5,37.4,-100.00,West,269,2.0,6.3,33,0.00,,,-99.99,FreeWX-Wi 1.01,2013-05-15 21:48:00,
2013-05-15 14:53:00,69.1,38.8,-100.00,West,263,2.0,5.4,33,0.00,,,-99.99,FreeWX-Wi 1.01,2013-05-15 21:53:00,
2013-05-15 14:59:00,69.4,39.0,-100.00,West,261,2.0,3.1,33,0.00,,,-99.99,FreeWX-Wi 1.01,2013-05-15 21:59:00,
2013-05-15 15:04:00,67.8,37.6,-100.00,WSW,254,2.0,5.4,33,0.00,,,-99.99,FreeWX-Wi 1.01,2013-05-15 22:04:00,
2013-05-15 15:09:00,68.4,38.1,-100.00,WSW,256,1.0,7.6,33,0.00,,,-99.99,FreeWX-Wi 1.01,2013-05-15 22:09:00,
2013-05-15 15:15:00,68.0,37.8,-100.00,WSW,256,2.0,7.2,33,0.00,,,-99.99,FreeWX-Wi 1.01,2013-05-15 22:15:00,
2013-05-15 15:20:00,66.9,36.9,-100.00,WSW,256,2.0,5.4,33,0.00,,,-99.99,FreeWX-Wi 1.01,2013-05-15 22:20:00,
2013-05-15 15:25:00,66.2,36.3,-100.00,West,261,2.0,4.0,33,0.00,,,-99.99,FreeWX-Wi 1.01,2013-05-15 22:25:00,
2013-05-15 15:30:00,66.2,36.3,-100.00,West,262,2.0,4.9,33,0.00,,,-99.99,FreeWX-Wi 1.01,2013-05-15 22:30:00,
2013-05-15 15:35:00,65.8,36.0,-100.00,West,273,2.0,5.8,33,0.00,,,-99.99,FreeWX-Wi 1.01,2013-05-15 22:35:00,
2013-05-15 15:40:00,65.8,36.0,-100.00,West,275,2.0,6.3,33,0.00,,,-99.99,FreeWX-Wi 1.01,2013-05-15 22:40:00,
2013-05-15 15:45:00,65.1,35.2,-100.00,West,274,2.0,7.2,33,0.00,,,-99.99,FreeWX-Wi 1.01,2013-05-15 22:45:00,
2013-05-15 15:50:00,65.8,36.0,-100.00,West,270,2.0,6.3,33,0.00,,,-99.99,FreeWX-Wi 1.01,2013-05-15 22:50:00,
2013-05-15 15:55:00,65.8,36.0,-100.00,WSW,258,2.0,6.3,33,0.00,,,-99.99,FreeWX-Wi 1.01,2013-05-15 22:55:00,
2013-05-15 16:00:00,65.5,35.6,-100.00,West,260,2.0,5.4,33,0.00,,,-99.99,FreeWX-Wi 1.01,2013-05-15 23:00:00,
2013-05-15 16:05:00,63.9,34.9,-100.00,West,263,2.0,4.9,34,0.00,,,-99.99,FreeWX-Wi 1.01,2013-05-15 23:05:00,
2013-05-15 16:10:00,63.5,34.7,-100.00,West,264,2.0,4.0,34,0.00,,,-99.99,FreeWX-Wi 1.01,2013-05-15 23:10:00,
2013-05-15 16:15:00,62.1,33.4,-100.00,West,264,2.0,5.4,34,0.00,,,-99.99,FreeWX-Wi 1.01,2013-05-15 23:15:00,
2013-05-15 16:20:00,61.2,32.5,-100.00,West,273,2.0,3.6,34,0.00,,,-99.99,FreeWX-Wi 1.01,2013-05-15 23:20:00,
2013-05-15 16:26:00,60.6,32.9,-100.00,West,275,2.0,6.3,35,0.00,,,-99.99,FreeWX-Wi 1.01,2013-05-15 23:26:00,
2013-05-15 16:31:00,60.1,32.4,-100.00,West,274,2.0,6.7,35,0.00,,,-99.99,FreeWX-Wi 1.01,2013-05-15 23:31:00,
2013-05-15 16:36:00,59.7,32.0,-100.00,West,268,2.0,3.6,35,0.00,,,-99.99,FreeWX-Wi 1.01,2013-05-15 23:36:00,
2013-05-15 16:41:00,59.5,31.8,-100.00,West,261,2.0,5.8,35,0.00,,,-99.99,FreeWX-Wi 1.01,2013-05-15 23:41:00,
2013-05-15 16:46:00,59.2,31.5,-100.00,West,265,2.0,5.8,35,0.00,,,-99.99,FreeWX-Wi 1.01,2013-05-15 23:46:00,
2013-05-15 16:51:00,58.6,31.1,-100.00,West,266,2.0,5.4,35,0.00,,,-99.99,FreeWX-Wi 1.01,2013-05-15 23:51:00,
2013-05-15 16:56:00,57.7,30.2,-100.00,West,262,2.0,4.0,35,0.00,,,-99.99,FreeWX-Wi 1.01,2013-05-15 23:56:00,
2013-05-15 17:01:00,56.8,30.2,-100.00,West,266,2.0,4.0,36,0.00,,,-99.99,FreeWX-Wi 1.01,2013-05-16 00:01:00,
2013-05-15 17:06:00,55.9,29.3,-100.00,West,268,2.0,5.4,36,0.00,,,-99.99,FreeWX-Wi 1.01,2013-05-16 00:06:00,
2013-05-15 17:11:00,55.6,29.1,-100.00,WSW,251,1.0,5.8,36,0.00,,,-99.99,FreeWX-Wi 1.01,2013-05-16 00:11:00,
2013-05-15 17:16:00,55.4,28.9,-100.00,WSW,247,1.0,4.0,36,0.00,,,-99.99,FreeWX-Wi 1.01,2013-05-16 00:16:00,
2013-05-15 17:21:00,55.0,29.3,-100.00,WSW,253,1.0,4.0,37,0.00,,,-99.99,FreeWX-Wi 1.01,2013-05-16 00:21:00,
2013-05-15 17:26:00,54.3,28.6,-100.00,WSW,255,1.0,4.0,37,0.00,,,-99.99,FreeWX-Wi 1.01,2013-05-16 00:26:00,
2013-05-15 17:32:00,54.3,28.6,-100.00,West,259,1.0,5.4,37,0.00,,,-99.99,FreeWX-Wi 1.01,2013-05-16 00:32:00,
2013-05-15 17:37:00,54.0,28.9,-100.00,WSW,255,1.0,4.0,38,0.00,,,-99.99,FreeWX-Wi 1.01,2013-05-16 00:37:00,
2013-05-15 17:42:00,54.3,29.8,-100.00,West,272,1.0,2.2,39,0.00,,,-99.99,FreeWX-Wi 1.01,2013-05-16 00:42:00,
2013-05-15 17:57:00,54.7,32.0,-100.00,North,-999,0.0,0.0,42,0.00,,,-99.99,FreeWX-Wi 1.01,2013-05-16 00:57:00,
2013-05-15 18:03:00,54.5,31.8,-100.00,North,-999,0.0,0.0,42,0.00,,,-99.99,FreeWX-Wi 1.01,2013-05-16 01:03:00,
2013-05-15 18:18:00,54.0,32.5,-100.00,North,-999,0.0,0.0,44,0.00,,,-99.99,FreeWX-Wi 1.01,2013-05-16 01:18:00,
2013-05-15 18:23:00,53.8,32.9,-100.00,North,-999,0.0,0.0,45,0.00,,,-99.99,FreeWX-Wi 1.01,2013-05-16 01:23:00,
2013-05-15 18:29:00,53.8,32.9,-100.00,North,-999,0.0,0.0,45,0.00,,,-99.99,FreeWX-Wi 1.01,2013-05-16 01:29:00,
2013-05-15 18:34:00,54.0,33.1,-100.00,North,-999,0.0,0.0,45,0.00,,,-99.99,FreeWX-Wi 1.01,2013-05-16 01:34:00,
2013-05-15 18:39:00,54.1,33.8,-100.00,North,-999,0.0,0.0,46,0.00,,,-99.99,FreeWX-Wi 1.01,2013-05-16 01:39:00,
2013-05-15 18:44:00,54.5,34.2,-100.00,North,-999,0.0,0.0,46,0.00,,,-99.99,FreeWX-Wi 1.01,2013-05-16 01:44:00,
2013-05-15 18:49:00,54.7,34.3,-100.00,North,-999,0.0,0.0,46,0.00,,,-99.99,FreeWX-Wi 1.01,2013-05-16 01:49:00,
2013-05-15 18:54:00,54.9,34.5,-100.00,North,-999,0.0,0.0,46,0.00,,,-99.99,FreeWX-Wi 1.01,2013-05-16 01:54:00,
2013-05-15 18:59:00,54.7,34.3,-100.00,North,-999,0.0,0.0,46,0.04,,,-99.99,FreeWX-Wi 1.01,2013-05-16 01:59:00,
2013-05-15 19:04:00,54.5,34.2,-100.00,North,-999,0.0,0.0,46,0.04,,,-99.99,FreeWX-Wi 1.01,2013-05-16 02:04:00,
2013-05-15 19:09:00,54.1,33.8,-100.00,North,-999,0.0,0.0,46,0.04,,,-99.99,FreeWX-Wi 1.01,2013-05-16 02:09:00,
2013-05-15 19:14:00,54.1,33.8,-100.00,North,-999,0.0,0.0,46,0.04,,,-99.99,FreeWX-Wi 1.01,2013-05-16 02:14:00,
2013-05-15 19:19:00,54.0,33.6,-100.00,North,-999,0.0,0.0,46,0.04,,,-99.99,FreeWX-Wi 1.01,2013-05-16 02:19:00,
2013-05-15 19:24:00,53.8,33.4,-100.00,North,-999,0.0,3.6,46,0.04,,,-99.99,FreeWX-Wi 1.01,2013-05-16 02:24:00,
2013-05-15 19:29:00,53.8,34.0,-100.00,North,-999,0.0,0.0,47,0.04,,,-99.99,FreeWX-Wi 1.01,2013-05-16 02:29:00,
2013-05-15 19:34:00,53.8,34.0,-100.00,North,-999,0.0,0.0,47,0.04,,,-99.99,FreeWX-Wi 1.01,2013-05-16 02:34:00,
2013-05-15 19:39:00,53.8,34.0,-100.00,North,-999,0.0,0.0,47,0.04,,,-99.99,FreeWX-Wi 1.01,2013-05-16 02:39:00,
2013-05-15 19:44:00,53.6,33.8,-100.00,North,-999,0.0,0.0,47,0.04,,,-99.99,FreeWX-Wi 1.01,2013-05-16 02:44:00,
2013-05-15 19:49:00,53.6,33.8,-100.00,North,-999,0.0,0.0,47,0.04,,,-99.99,FreeWX-Wi 1.01,2013-05-16 02:49:00,
2013-05-15 19:54:00,53.8,34.0,-100.00,North,-999,0.0,0.0,47,0.04,,,-99.99,FreeWX-Wi 1.01,2013-05-16 02:54:00,
2013-05-15 20:10:00,53.4,34.2,-100.00,North,-999,0.0,0.0,48,0.00,,,-99.99,FreeWX-Wi 1.01,2013-05-16 03:10:00,
2013-05-15 20:15:00,53.1,33.4,-100.00,North,-999,0.0,0.0,47,0.00,,,-99.99,FreeWX-Wi 1.01,2013-05-16 03:15:00,
2013-05-15 20:20:00,53.1,34.0,-100.00,North,-999,0.0,0.0,48,0.00,,,-99.99,FreeWX-Wi 1.01,2013-05-16 03:20:00,
2013-05-15 20:25:00,53.1,34.0,-100.00,North,-999,0.0,0.0,48,0.00,,,-99.99,FreeWX-Wi 1.01,2013-05-16 03:25:00,
2013-05-15 20:30:00,53.1,34.0,-100.00,North,-999,0.0,0.0,48,0.00,,,-99.99,FreeWX-Wi 1.01,2013-05-16 03:30:00,
2013-05-15 20:35:00,53.1,34.0,-100.00,North,-999,0.0,0.0,48,0.00,,,-99.99,FreeWX-Wi 1.01,2013-05-16 03:35:00,
2013-05-15 20:41:00,53.1,34.3,-100.00,North,-999,0.0,0.0,49,0.00,,,-99.99,FreeWX-Wi 1.01,2013-05-16 03:41:00,
2013-05-15 20:46:00,52.9,34.2,-100.00,North,-999,0.0,0.0,49,0.00,,,-99.99,FreeWX-Wi 1.01,2013-05-16 03:46:00,
2013-05-15 20:51:00,52.7,33.6,-100.00,North,-999,0.0,0.0,48,0.00,,,-99.99,FreeWX-Wi 1.01,2013-05-16 03:51:00,
2013-05-15 20:56:00,52.7,34.2,-100.00,North,-999,0.0,0.0,49,0.00,,,-99.99,FreeWX-Wi 1.01,2013-05-16 03:56:00,
2013-05-15 21:01:00,52.5,34.0,-100.00,North,-999,0.0,0.0,49,0.00,,,-99.99,FreeWX-Wi 1.01,2013-05-16 04:01:00,
2013-05-15 21:06:00,52.5,34.3,-100.00,North,-999,0.0,0.0,50,0.00,,,-99.99,FreeWX-Wi 1.01,2013-05-16 04:06:00,
2013-05-15 21:11:00,52.5,34.3,-100.00,North,-999,0.0,0.0,50,0.00,,,-99.99,FreeWX-Wi 1.01,2013-05-16 04:11:00,
2013-05-15 21:16:00,52.5,34.9,-100.00,North,-999,0.0,0.0,51,0.00,,,-99.99,FreeWX-Wi 1.01,2013-05-16 04:16:00,
2013-05-15 21:21:00,52.5,34.9,-100.00,North,-999,0.0,0.0,51,0.00,,,-99.99,FreeWX-Wi 1.01,2013-05-16 04:21:00,
2013-05-15 21:26:00,52.5,34.9,-100.00,North,-999,0.0,0.0,51,0.00,,,-99.99,FreeWX-Wi 1.01,2013-05-16 04:26:00,
2013-05-15 21:31:00,52.5,35.4,-100.00,North,-999,0.0,0.0,52,0.00,,,-99.99,FreeWX-Wi 1.01,2013-05-16 04:31:00,
2013-05-15 21:36:00,52.5,35.4,-100.00,North,-999,0.0,0.0,52,0.00,,,-99.99,FreeWX-Wi 1.01,2013-05-16 04:36:00,
2013-05-15 21:41:00,52.3,35.2,-100.00,North,-999,0.0,0.0,52,0.00,,,-99.99,FreeWX-Wi 1.01,2013-05-16 04:41:00,
2013-05-15 21:46:00,52.2,34.5,-100.00,North,-999,0.0,0.0,51,0.00,,,-99.99,FreeWX-Wi 1.01,2013-05-16 04:46:00,
2013-05-15 21:51:00,52.2,35.1,-100.00,North,-999,0.0,0.0,52,0.00,,,-99.99,FreeWX-Wi 1.01,2013-05-16 04:51:00,
2013-05-15 21:56:00,52.2,35.6,-100.00,North,-999,0.0,0.0,53,0.00,,,-99.99,FreeWX-Wi 1.01,2013-05-16 04:56:00,
2013-05-15 22:01:00,52.2,35.6,-100.00,North,-999,0.0,0.0,53,0.00,,,-99.99,FreeWX-Wi 1.01,2013-05-16 05:01:00,
2013-05-15 22:06:00,52.2,35.6,-100.00,North,-999,0.0,0.0,53,0.00,,,-99.99,FreeWX-Wi 1.01,2013-05-16 05:06:00,
2013-05-15 22:11:00,52.3,36.1,-100.00,North,-999,0.0,0.0,54,0.00,,,-99.99,FreeWX-Wi 1.01,2013-05-16 05:11:00,
2013-05-15 22:16:00,52.2,36.0,-100.00,North,-999,0.0,0.0,54,0.00,,,-99.99,FreeWX-Wi 1.01,2013-05-16 05:16:00,
2013-05-15 22:21:00,52.2,36.0,-100.00,North,-999,0.0,0.0,54,0.00,,,-99.99,FreeWX-Wi 1.01,2013-05-16 05:21:00,
2013-05-15 22:26:00,52.2,36.0,-100.00,North,-999,0.0,0.0,54,0.00,,,-99.99,FreeWX-Wi 1.01,2013-05-16 05:26:00,
2013-05-15 22:31:00,52.3,36.7,-100.00,North,-999,0.0,0.0,55,0.00,,,-99.99,FreeWX-Wi 1.01,2013-05-16 05:31:00,
2013-05-15 22:36:00,52.3,36.7,-100.00,North,-999,0.0,0.0,55,0.00,,,-99.99,FreeWX-Wi 1.01,2013-05-16 05:36:00,
2013-05-15 22:41:00,52.3,36.7,-100.00,North,-999,0.0,0.0,55,0.00,,,-99.99,FreeWX-Wi 1.01,2013-05-16 05:41:00,
2013-05-15 22:46:00,52.3,36.7,-100.00,North,-999,0.0,0.0,55,0.00,,,-99.99,FreeWX-Wi 1.01,2013-05-16 05:46:00,
2013-05-15 22:51:00,52.3,36.7,-100.00,North,-999,0.0,0.0,55,0.00,,,-99.99,FreeWX-Wi 1.01,2013-05-16 05:51:00,
2013-05-15 22:57:00,52.3,36.7,-100.00,North,-999,0.0,0.0,55,0.00,,,-99.99,FreeWX-Wi 1.01,2013-05-16 05:57:00,
2013-05-15 23:02:00,52.3,36.7,-100.00,North,-999,0.0,0.0,55,0.00,,,-99.99,FreeWX-Wi 1.01,2013-05-16 06:02:00,
2013-05-15 23:07:00,52.3,37.0,-100.00,North,-999,0.0,0.0,56,0.00,,,-99.99,FreeWX-Wi 1.01,2013-05-16 06:07:00,
2013-05-15 23:12:00,52.3,37.0,-100.00,North,-999,0.0,0.0,56,0.00,,,-99.99,FreeWX-Wi 1.01,2013-05-16 06:12:00,
2013-05-15 23:17:00,52.3,37.0,-100.00,North,-999,0.0,0.0,56,0.00,,,-99.99,FreeWX-Wi 1.01,2013-05-16 06:17:00,
2013-05-15 23:22:00,52.3,37.0,-100.00,North,-999,0.0,0.0,56,0.00,,,-99.99,FreeWX-Wi 1.01,2013-05-16 06:22:00,
2013-05-15 23:27:00,52.3,37.0,-100.00,North,-999,0.0,0.0,56,0.00,,,-99.99,FreeWX-Wi 1.01,2013-05-16 06:27:00,
2013-05-15 23:32:00,52.3,37.6,-100.00,North,-999,0.0,0.0,57,0.00,,,-99.99,FreeWX-Wi 1.01,2013-05-16 06:32:00,
2013-05-15 23:37:00,52.3,37.6,-100.00,North,-999,0.0,0.0,57,0.00,,,-99.99,FreeWX-Wi 1.01,2013-05-16 06:37:00,
2013-05-15 23:42:00,52.3,37.9,-100.00,North,-999,0.0,0.0,58,0.00,,,-99.99,FreeWX-Wi 1.01,2013-05-16 06:42:00,
2013-05-15 23:47:00,52.5,38.1,-100.00,North,-999,0.0,0.0,58,0.00,,,-99.99,FreeWX-Wi 1.01,2013-05-16 06:47:00,
2013-05-15 23:52:00,52.5,38.1,-100.00,North,-999,0.0,0.0,58,0.00,,,-99.99,FreeWX-Wi 1.01,2013-05-16 06:52:00,
2013-05-15 23:57:00,52.5,38.1,-100.00,North,-999,0.0,0.0,58,0.00,,,-99.99,FreeWX-Wi 1.01,2013-05-16 06:57:00,